Terminal Aerodrome Forecast
Issued by NWS Wilmington, NC

Home | Current Version | Previous Version | Text Only | Print | Product List | Glossary On
Versions: 1 2 3 4 5 6 7 8 9 10 11 12 13 14 15 16 17 18
340
FTUS42 KILM 291738
TAFILM
TAF
KILM 291738Z 2918/3018 20010G19KT P6SM SCT040
      TEMPO 2918/2920 BKN040
     FM300000 19010KT P6SM FEW150
     FM300500 20004KT P6SM BKN006
     FM301300 19008KT P6SM BKN025
     FM301600 20010KT P6SM SCT200=

USA.gov is the U.S. government's official web portal to all federal, state and local government web resources and services.